Denver, Colorado
Current Conditions -  °F | °C
As of 1:58 AM on Sunday 26 Oct 2014 (Local Time) from KBKF Reporting Station
Clear Clear  
Wind Chill: 11°   Ceiling: Unl
Heat Index: 11°   Visibility: 10mi
Dew Point: -4°   Wind: 13mph
Humidity: 34%   Direction: 180°S
Pressure: 29.96"   Gusts: NA
Location:  39.74°N, 104.99°W
Report Text: KBKF 260758Z 18011KT 10SM CLR 11/M04 A2996 RMK AO2A SLP080 T01101043
Loading
Personal Weather Stations






























Interactive Weather Map
Tropical Storm Tracking
New forecast layout! Learn more

10-Day Weather Forecast

Advertisements
Track Severe Weather on mobile